sensor_id;sensor_type;location;lat;lon;timestamp;P1;durP1;ratioP1;P2;durP2;ratioP2
35699;SDS011;21818;51.078;12.108;2023-07-30T00:01:15;3.80;;;1.80;;
35699;SDS011;21818;51.078;12.108;2023-07-30T00:03:40;4.07;;;1.80;;
35699;SDS011;21818;51.078;12.108;2023-07-30T00:06:06;4.03;;;1.90;;
35699;SDS011;21818;51.078;12.108;2023-07-30T00:08:31;4.00;;;1.70;;
35699;SDS011;21818;51.078;12.108;2023-07-30T00:10:57;6.82;;;2.00;;
35699;SDS011;21818;51.078;12.108;2023-07-30T00:13:23;5.35;;;2.08;;
35699;SDS011;21818;51.078;12.108;2023-07-30T00:15:49;4.68;;;1.65;;
35699;SDS011;21818;51.078;12.108;2023-07-30T00:18:15;4.63;;;1.70;;
35699;SDS011;21818;51.078;12.108;2023-07-30T00:20:41;5.28;;;1.80;;
35699;SDS011;21818;51.078;12.108;2023-07-30T00:23:07;4.55;;;1.70;;
35699;SDS011;21818;51.078;12.108;2023-07-30T00:25:32;6.53;;;2.00;;
35699;SDS011;21818;51.078;12.108;2023-07-30T00:27:58;2.72;;;1.73;;
35699;SDS011;21818;51.078;12.108;2023-07-30T00:30:24;3.13;;;1.60;;
35699;SDS011;21818;51.078;12.108;2023-07-30T00:32:50;3.13;;;1.38;;
35699;SDS011;21818;51.078;12.108;2023-07-30T00:35:15;2.88;;;1.75;;
35699;SDS011;21818;51.078;12.108;2023-07-30T00:37:41;5.45;;;1.83;;
35699;SDS011;21818;51.078;12.108;2023-07-30T00:40:07;3.15;;;1.77;;
35699;SDS011;21818;51.078;12.108;2023-07-30T00:42:33;3.75;;;1.52;;
35699;SDS011;21818;51.078;12.108;2023-07-30T00:44:58;2.63;;;1.38;;
35699;SDS011;21818;51.078;12.108;2023-07-30T00:47:24;5.20;;;1.77;;
35699;SDS011;21818;51.078;12.108;2023-07-30T00:49:51;3.88;;;1.63;;
35699;SDS011;21818;51.078;12.108;2023-07-30T00:52:18;2.47;;;1.40;;
35699;SDS011;21818;51.078;12.108;2023-07-30T00:54:45;4.60;;;1.55;;
35699;SDS011;21818;51.078;12.108;2023-07-30T00:57:11;5.15;;;1.73;;
35699;SDS011;21818;51.078;12.108;2023-07-30T00:59:37;2.28;;;1.52;;
35699;SDS011;21818;51.078;12.108;2023-07-30T01:02:03;2.35;;;1.38;;
35699;SDS011;21818;51.078;12.108;2023-07-30T01:04:29;5.72;;;1.85;;
35699;SDS011;21818;51.078;12.108;2023-07-30T01:06:55;4.78;;;1.60;;
35699;SDS011;21818;51.078;12.108;2023-07-30T01:09:21;4.18;;;1.80;;
35699;SDS011;21818;51.078;12.108;2023-07-30T01:11:48;3.17;;;1.60;;
35699;SDS011;21818;51.078;12.108;2023-07-30T01:14:13;3.30;;;1.73;;
35699;SDS011;21818;51.078;12.108;2023-07-30T01:16:40;3.75;;;1.40;;
35699;SDS011;21818;51.078;12.108;2023-07-30T01:19:06;5.07;;;1.70;;
35699;SDS011;21818;51.078;12.108;2023-07-30T01:21:35;3.40;;;1.40;;
35699;SDS011;21818;51.078;12.108;2023-07-30T01:24:01;3.42;;;1.95;;
35699;SDS011;21818;51.078;12.108;2023-07-30T01:26:30;7.78;;;2.00;;
35699;SDS011;21818;51.078;12.108;2023-07-30T01:29:02;5.80;;;1.70;;
35699;SDS011;21818;51.078;12.108;2023-07-30T01:31:32;2.42;;;1.50;;
35699;SDS011;21818;51.078;12.108;2023-07-30T01:33:59;5.18;;;1.58;;
35699;SDS011;21818;51.078;12.108;2023-07-30T01:36:27;2.45;;;1.45;;
35699;SDS011;21818;51.078;12.108;2023-07-30T01:38:53;7.32;;;1.50;;
35699;SDS011;21818;51.078;12.108;2023-07-30T01:41:19;3.25;;;1.27;;
35699;SDS011;21818;51.078;12.108;2023-07-30T01:43:45;5.28;;;1.92;;
35699;SDS011;21818;51.078;12.108;2023-07-30T01:46:10;5.03;;;1.80;;
35699;SDS011;21818;51.078;12.108;2023-07-30T01:48:36;4.78;;;1.75;;
35699;SDS011;21818;51.078;12.108;2023-07-30T01:51:02;6.38;;;1.65;;
35699;SDS011;21818;51.078;12.108;2023-07-30T01:53:27;6.78;;;2.00;;
35699;SDS011;21818;51.078;12.108;2023-07-30T01:55:53;4.20;;;1.90;;
35699;SDS011;21818;51.078;12.108;2023-07-30T01:58:18;3.22;;;1.63;;
35699;SDS011;21818;51.078;12.108;2023-07-30T02:00:44;5.32;;;1.90;;
35699;SDS011;21818;51.078;12.108;2023-07-30T02:03:10;4.20;;;1.50;;
35699;SDS011;21818;51.078;12.108;2023-07-30T02:05:36;5.35;;;2.05;;
35699;SDS011;21818;51.078;12.108;2023-07-30T02:08:01;7.22;;;2.22;;
35699;SDS011;21818;51.078;12.108;2023-07-30T02:10:27;2.88;;;1.55;;
35699;SDS011;21818;51.078;12.108;2023-07-30T02:12:53;3.78;;;1.67;;
35699;SDS011;21818;51.078;12.108;2023-07-30T02:15:18;6.07;;;1.90;;
35699;SDS011;21818;51.078;12.108;2023-07-30T02:17:44;4.32;;;2.17;;
35699;SDS011;21818;51.078;12.108;2023-07-30T02:20:10;2.58;;;1.50;;
35699;SDS011;21818;51.078;12.108;2023-07-30T02:22:35;5.72;;;2.10;;
35699;SDS011;21818;51.078;12.108;2023-07-30T02:25:01;3.03;;;1.80;;
35699;SDS011;21818;51.078;12.108;2023-07-30T02:27:27;7.55;;;2.20;;
35699;SDS011;21818;51.078;12.108;2023-07-30T02:29:52;6.63;;;1.95;;
35699;SDS011;21818;51.078;12.108;2023-07-30T02:32:18;6.97;;;2.25;;
35699;SDS011;21818;51.078;12.108;2023-07-30T02:37:11;5.93;;;1.98;;
35699;SDS011;21818;51.078;12.108;2023-07-30T02:39:36;3.45;;;1.80;;
35699;SDS011;21818;51.078;12.108;2023-07-30T02:42:02;4.20;;;2.00;;
35699;SDS011;21818;51.078;12.108;2023-07-30T02:44:28;3.75;;;1.55;;
35699;SDS011;21818;51.078;12.108;2023-07-30T02:46:53;5.53;;;1.85;;
35699;SDS011;21818;51.078;12.108;2023-07-30T02:49:19;4.65;;;1.90;;
35699;SDS011;21818;51.078;12.108;2023-07-30T02:51:44;2.85;;;1.40;;
35699;SDS011;21818;51.078;12.108;2023-07-30T02:54:13;4.30;;;1.40;;
35699;SDS011;21818;51.078;12.108;2023-07-30T02:56:40;4.78;;;1.60;;
35699;SDS011;21818;51.078;12.108;2023-07-30T02:59:06;4.28;;;1.40;;
35699;SDS011;21818;51.078;12.108;2023-07-30T03:01:32;4.00;;;1.85;;
35699;SDS011;21818;51.078;12.108;2023-07-30T03:03:57;6.43;;;2.10;;
35699;SDS011;21818;51.078;12.108;2023-07-30T03:06:23;2.58;;;1.55;;
35699;SDS011;21818;51.078;12.108;2023-07-30T03:08:48;2.50;;;1.77;;
35699;SDS011;21818;51.078;12.108;2023-07-30T03:11:14;3.97;;;2.00;;
35699;SDS011;21818;51.078;12.108;2023-07-30T03:13:40;2.78;;;1.60;;
35699;SDS011;21818;51.078;12.108;2023-07-30T03:16:05;3.55;;;1.75;;
35699;SDS011;21818;51.078;12.108;2023-07-30T03:18:31;10.68;;;2.95;;
35699;SDS011;21818;51.078;12.108;2023-07-30T03:20:57;3.22;;;1.50;;
35699;SDS011;21818;51.078;12.108;2023-07-30T03:23:26;2.83;;;1.63;;
35699;SDS011;21818;51.078;12.108;2023-07-30T03:25:52;4.55;;;1.60;;
35699;SDS011;21818;51.078;12.108;2023-07-30T03:28:18;4.30;;;1.83;;
35699;SDS011;21818;51.078;12.108;2023-07-30T03:30:44;4.40;;;2.10;;
35699;SDS011;21818;51.078;12.108;2023-07-30T03:33:09;5.20;;;1.50;;
35699;SDS011;21818;51.078;12.108;2023-07-30T03:35:35;4.93;;;1.73;;
35699;SDS011;21818;51.078;12.108;2023-07-30T03:38:00;5.88;;;1.98;;
35699;SDS011;21818;51.078;12.108;2023-07-30T03:40:26;4.30;;;1.85;;
35699;SDS011;21818;51.078;12.108;2023-07-30T03:42:52;3.30;;;1.80;;
35699;SDS011;21818;51.078;12.108;2023-07-30T03:45:18;4.45;;;1.60;;
35699;SDS011;21818;51.078;12.108;2023-07-30T03:47:44;4.88;;;1.85;;
35699;SDS011;21818;51.078;12.108;2023-07-30T03:50:09;5.18;;;1.38;;
35699;SDS011;21818;51.078;12.108;2023-07-30T03:52:35;4.65;;;1.63;;
35699;SDS011;21818;51.078;12.108;2023-07-30T03:55:01;3.60;;;1.50;;
35699;SDS011;21818;51.078;12.108;2023-07-30T03:57:26;4.03;;;1.65;;
35699;SDS011;21818;51.078;12.108;2023-07-30T03:59:52;3.88;;;1.88;;
35699;SDS011;21818;51.078;12.108;2023-07-30T04:02:17;3.67;;;1.67;;
35699;SDS011;21818;51.078;12.108;2023-07-30T04:04:43;2.40;;;1.70;;
35699;SDS011;21818;51.078;12.108;2023-07-30T04:07:09;5.93;;;1.80;;
35699;SDS011;21818;51.078;12.108;2023-07-30T04:09:35;4.82;;;1.90;;
35699;SDS011;21818;51.078;12.108;2023-07-30T04:12:01;5.90;;;1.55;;
35699;SDS011;21818;51.078;12.108;2023-07-30T04:14:27;2.38;;;1.58;;
35699;SDS011;21818;51.078;12.108;2023-07-30T04:16:52;5.22;;;1.63;;
35699;SDS011;21818;51.078;12.108;2023-07-30T04:19:18;2.58;;;1.55;;
35699;SDS011;21818;51.078;12.108;2023-07-30T04:21:44;11.80;;;2.10;;
35699;SDS011;21818;51.078;12.108;2023-07-30T04:24:10;2.83;;;1.90;;
35699;SDS011;21818;51.078;12.108;2023-07-30T04:26:35;4.28;;;1.50;;
35699;SDS011;21818;51.078;12.108;2023-07-30T04:29:01;5.43;;;1.65;;
35699;SDS011;21818;51.078;12.108;2023-07-30T04:31:27;3.50;;;1.50;;
35699;SDS011;21818;51.078;12.108;2023-07-30T04:33:52;9.15;;;2.55;;
35699;SDS011;21818;51.078;12.108;2023-07-30T04:36:18;2.42;;;1.45;;
35699;SDS011;21818;51.078;12.108;2023-07-30T04:38:43;5.18;;;1.60;;
35699;SDS011;21818;51.078;12.108;2023-07-30T04:41:09;3.00;;;1.70;;
35699;SDS011;21818;51.078;12.108;2023-07-30T04:43:34;4.15;;;1.48;;
35699;SDS011;21818;51.078;12.108;2023-07-30T04:46:00;4.50;;;1.98;;
35699;SDS011;21818;51.078;12.108;2023-07-30T04:48:26;3.00;;;1.75;;
35699;SDS011;21818;51.078;12.108;2023-07-30T04:50:51;3.65;;;1.80;;
35699;SDS011;21818;51.078;12.108;2023-07-30T04:53:17;4.28;;;1.60;;
35699;SDS011;21818;51.078;12.108;2023-07-30T04:55:43;2.58;;;1.67;;
35699;SDS011;21818;51.078;12.108;2023-07-30T04:58:09;3.17;;;1.45;;
35699;SDS011;21818;51.078;12.108;2023-07-30T05:00:34;6.32;;;2.10;;
35699;SDS011;21818;51.078;12.108;2023-07-30T05:03:00;2.53;;;1.50;;
35699;SDS011;21818;51.078;12.108;2023-07-30T05:05:25;2.08;;;1.50;;
35699;SDS011;21818;51.078;12.108;2023-07-30T05:07:51;2.42;;;1.73;;
35699;SDS011;21818;51.078;12.108;2023-07-30T05:10:17;2.33;;;1.90;;
35699;SDS011;21818;51.078;12.108;2023-07-30T05:12:43;4.22;;;1.70;;
35699;SDS011;21818;51.078;12.108;2023-07-30T05:15:08;4.13;;;1.77;;
35699;SDS011;21818;51.078;12.108;2023-07-30T05:17:34;6.82;;;1.85;;
35699;SDS011;21818;51.078;12.108;2023-07-30T05:20:00;3.47;;;1.90;;
35699;SDS011;21818;51.078;12.108;2023-07-30T05:22:25;4.70;;;1.55;;
35699;SDS011;21818;51.078;12.108;2023-07-30T05:24:51;4.25;;;1.88;;
35699;SDS011;21818;51.078;12.108;2023-07-30T05:27:17;6.25;;;1.60;;
35699;SDS011;21818;51.078;12.108;2023-07-30T05:29:42;2.22;;;1.70;;
35699;SDS011;21818;51.078;12.108;2023-07-30T05:32:08;2.55;;;1.80;;
35699;SDS011;21818;51.078;12.108;2023-07-30T05:34:34;3.88;;;1.40;;
35699;SDS011;21818;51.078;12.108;2023-07-30T05:36:59;3.53;;;1.90;;
35699;SDS011;21818;51.078;12.108;2023-07-30T05:39:25;5.90;;;1.70;;
35699;SDS011;21818;51.078;12.108;2023-07-30T05:41:51;7.93;;;1.85;;
35699;SDS011;21818;51.078;12.108;2023-07-30T05:44:16;4.03;;;1.67;;
35699;SDS011;21818;51.078;12.108;2023-07-30T05:46:42;6.30;;;2.33;;
35699;SDS011;21818;51.078;12.108;2023-07-30T05:49:08;5.10;;;2.03;;
35699;SDS011;21818;51.078;12.108;2023-07-30T05:51:34;9.65;;;2.00;;
35699;SDS011;21818;51.078;12.108;2023-07-30T05:53:59;3.92;;;1.50;;
35699;SDS011;21818;51.078;12.108;2023-07-30T05:56:25;4.35;;;2.30;;
35699;SDS011;21818;51.078;12.108;2023-07-30T05:58:50;5.53;;;2.53;;
35699;SDS011;21818;51.078;12.108;2023-07-30T06:01:16;5.47;;;2.03;;
35699;SDS011;21818;51.078;12.108;2023-07-30T06:03:42;3.45;;;1.80;;
35699;SDS011;21818;51.078;12.108;2023-07-30T06:06:08;7.13;;;2.05;;
35699;SDS011;21818;51.078;12.108;2023-07-30T06:08:33;3.63;;;1.92;;
35699;SDS011;21818;51.078;12.108;2023-07-30T06:11:02;3.75;;;1.50;;
35699;SDS011;21818;51.078;12.108;2023-07-30T06:13:28;3.58;;;1.38;;
35699;SDS011;21818;51.078;12.108;2023-07-30T06:15:54;3.00;;;1.77;;
35699;SDS011;21818;51.078;12.108;2023-07-30T06:18:20;3.35;;;2.03;;
35699;SDS011;21818;51.078;12.108;2023-07-30T06:20:46;3.83;;;1.50;;
35699;SDS011;21818;51.078;12.108;2023-07-30T06:23:11;2.45;;;1.15;;
35699;SDS011;21818;51.078;12.108;2023-07-30T06:25:37;2.20;;;1.50;;
35699;SDS011;21818;51.078;12.108;2023-07-30T06:28:03;1.85;;;1.33;;
35699;SDS011;21818;51.078;12.108;2023-07-30T06:30:30;3.72;;;2.40;;
35699;SDS011;21818;51.078;12.108;2023-07-30T06:32:56;5.07;;;1.35;;
35699;SDS011;21818;51.078;12.108;2023-07-30T06:35:22;3.22;;;1.80;;
35699;SDS011;21818;51.078;12.108;2023-07-30T06:37:48;2.13;;;1.48;;
35699;SDS011;21818;51.078;12.108;2023-07-30T06:40:15;3.13;;;1.50;;
35699;SDS011;21818;51.078;12.108;2023-07-30T06:42:41;3.38;;;1.52;;
35699;SDS011;21818;51.078;12.108;2023-07-30T06:45:06;3.25;;;1.65;;
35699;SDS011;21818;51.078;12.108;2023-07-30T06:47:33;3.90;;;1.65;;
35699;SDS011;21818;51.078;12.108;2023-07-30T06:49:58;3.28;;;1.63;;
35699;SDS011;21818;51.078;12.108;2023-07-30T06:52:24;3.97;;;2.08;;
35699;SDS011;21818;51.078;12.108;2023-07-30T06:54:49;2.35;;;1.35;;
35699;SDS011;21818;51.078;12.108;2023-07-30T06:57:15;3.17;;;1.70;;
35699;SDS011;21818;51.078;12.108;2023-07-30T06:59:40;3.80;;;1.67;;
35699;SDS011;21818;51.078;12.108;2023-07-30T07:02:06;3.22;;;1.38;;
35699;SDS011;21818;51.078;12.108;2023-07-30T07:04:32;3.42;;;1.38;;
35699;SDS011;21818;51.078;12.108;2023-07-30T07:06:57;5.10;;;1.75;;
35699;SDS011;21818;51.078;12.108;2023-07-30T07:09:23;2.28;;;1.30;;
35699;SDS011;21818;51.078;12.108;2023-07-30T07:11:48;3.63;;;1.60;;
35699;SDS011;21818;51.078;12.108;2023-07-30T07:14:14;3.75;;;1.80;;
35699;SDS011;21818;51.078;12.108;2023-07-30T07:16:39;3.08;;;1.65;;
35699;SDS011;21818;51.078;12.108;2023-07-30T07:19:05;3.00;;;1.92;;
35699;SDS011;21818;51.078;12.108;2023-07-30T07:21:31;2.40;;;1.55;;
35699;SDS011;21818;51.078;12.108;2023-07-30T07:23:56;3.10;;;1.67;;
35699;SDS011;21818;51.078;12.108;2023-07-30T07:26:22;9.95;;;1.67;;
35699;SDS011;21818;51.078;12.108;2023-07-30T07:28:47;4.57;;;1.52;;
35699;SDS011;21818;51.078;12.108;2023-07-30T07:31:13;3.60;;;1.83;;
35699;SDS011;21818;51.078;12.108;2023-07-30T07:33:39;2.17;;;1.60;;
35699;SDS011;21818;51.078;12.108;2023-07-30T07:36:08;3.03;;;2.10;;
35699;SDS011;21818;51.078;12.108;2023-07-30T07:38:34;3.03;;;1.80;;
35699;SDS011;21818;51.078;12.108;2023-07-30T07:41:00;4.13;;;1.98;;
35699;SDS011;21818;51.078;12.108;2023-07-30T07:43:26;1.80;;;1.58;;
35699;SDS011;21818;51.078;12.108;2023-07-30T07:45:52;2.03;;;1.50;;
35699;SDS011;21818;51.078;12.108;2023-07-30T07:48:18;6.43;;;2.53;;
35699;SDS011;21818;51.078;12.108;2023-07-30T07:50:44;1.88;;;1.40;;
35699;SDS011;21818;51.078;12.108;2023-07-30T07:53:10;3.03;;;1.88;;
35699;SDS011;21818;51.078;12.108;2023-07-30T07:55:36;3.30;;;1.73;;
35699;SDS011;21818;51.078;12.108;2023-07-30T07:58:02;2.53;;;1.17;;
35699;SDS011;21818;51.078;12.108;2023-07-30T08:00:27;1.65;;;1.40;;
35699;SDS011;21818;51.078;12.108;2023-07-30T08:02:53;2.50;;;1.42;;
35699;SDS011;21818;51.078;12.108;2023-07-30T08:05:18;1.73;;;1.52;;
35699;SDS011;21818;51.078;12.108;2023-07-30T08:07:47;1.73;;;1.40;;
35699;SDS011;21818;51.078;12.108;2023-07-30T08:10:12;2.45;;;1.40;;
35699;SDS011;21818;51.078;12.108;2023-07-30T08:12:38;2.75;;;1.60;;
35699;SDS011;21818;51.078;12.108;2023-07-30T08:15:03;2.20;;;1.60;;
35699;SDS011;21818;51.078;12.108;2023-07-30T08:17:29;2.03;;;1.58;;
35699;SDS011;21818;51.078;12.108;2023-07-30T08:19:55;1.80;;;1.60;;
35699;SDS011;21818;51.078;12.108;2023-07-30T08:22:21;3.08;;;1.73;;
35699;SDS011;21818;51.078;12.108;2023-07-30T08:24:46;3.75;;;1.55;;
35699;SDS011;21818;51.078;12.108;2023-07-30T08:27:12;2.80;;;1.50;;
35699;SDS011;21818;51.078;12.108;2023-07-30T08:29:37;2.78;;;1.70;;
35699;SDS011;21818;51.078;12.108;2023-07-30T08:32:03;2.88;;;1.50;;
35699;SDS011;21818;51.078;12.108;2023-07-30T08:34:29;3.30;;;1.20;;
35699;SDS011;21818;51.078;12.108;2023-07-30T08:36:54;3.17;;;1.70;;
35699;SDS011;21818;51.078;12.108;2023-07-30T08:39:20;2.35;;;1.40;;
35699;SDS011;21818;51.078;12.108;2023-07-30T08:41:46;1.70;;;1.30;;
35699;SDS011;21818;51.078;12.108;2023-07-30T08:44:12;3.92;;;1.60;;
35699;SDS011;21818;51.078;12.108;2023-07-30T08:46:37;2.78;;;1.73;;
35699;SDS011;21818;51.078;12.108;2023-07-30T08:49:04;2.70;;;1.48;;
35699;SDS011;21818;51.078;12.108;2023-07-30T08:51:29;1.80;;;1.27;;
35699;SDS011;21818;51.078;12.108;2023-07-30T08:53:57;1.95;;;1.52;;
35699;SDS011;21818;51.078;12.108;2023-07-30T08:56:23;1.33;;;1.15;;
35699;SDS011;21818;51.078;12.108;2023-07-30T08:58:49;2.28;;;1.30;;
35699;SDS011;21818;51.078;12.108;2023-07-30T09:01:16;2.42;;;1.40;;
35699;SDS011;21818;51.078;12.108;2023-07-30T09:03:43;1.92;;;1.30;;
35699;SDS011;21818;51.078;12.108;2023-07-30T09:06:09;1.92;;;1.48;;
35699;SDS011;21818;51.078;12.108;2023-07-30T09:08:35;2.22;;;1.15;;
35699;SDS011;21818;51.078;12.108;2023-07-30T09:11:09;3.72;;;1.55;;
35699;SDS011;21818;51.078;12.108;2023-07-30T09:13:39;2.08;;;1.17;;
35699;SDS011;21818;51.078;12.108;2023-07-30T09:16:13;1.65;;;1.38;;
35699;SDS011;21818;51.078;12.108;2023-07-30T09:18:44;1.77;;;1.25;;
35699;SDS011;21818;51.078;12.108;2023-07-30T09:23:40;2.55;;;1.20;;
35699;SDS011;21818;51.078;12.108;2023-07-30T09:26:07;3.67;;;1.40;;
35699;SDS011;21818;51.078;12.108;2023-07-30T09:28:33;2.47;;;1.35;;
35699;SDS011;21818;51.078;12.108;2023-07-30T09:31:08;1.40;;;1.30;;
35699;SDS011;21818;51.078;12.108;2023-07-30T09:33:34;1.38;;;1.15;;
35699;SDS011;21818;51.078;12.108;2023-07-30T09:36:05;1.83;;;1.40;;
35699;SDS011;21818;51.078;12.108;2023-07-30T09:38:33;2.85;;;1.05;;
35699;SDS011;21818;51.078;12.108;2023-07-30T09:41:04;1.20;;;1.10;;
35699;SDS011;21818;51.078;12.108;2023-07-30T09:43:33;3.05;;;1.00;;
35699;SDS011;21818;51.078;12.108;2023-07-30T09:46:02;1.70;;;0.98;;
35699;SDS011;21818;51.078;12.108;2023-07-30T09:48:29;2.00;;;1.03;;
35699;SDS011;21818;51.078;12.108;2023-07-30T09:51:00;1.60;;;1.00;;
35699;SDS011;21818;51.078;12.108;2023-07-30T09:53:31;1.30;;;1.00;;
35699;SDS011;21818;51.078;12.108;2023-07-30T09:56:00;1.33;;;0.88;;
35699;SDS011;21818;51.078;12.108;2023-07-30T09:58:30;1.17;;;0.98;;
35699;SDS011;21818;51.078;12.108;2023-07-30T10:01:00;1.08;;;0.90;;
35699;SDS011;21818;51.078;12.108;2023-07-30T10:03:28;3.50;;;1.23;;
35699;SDS011;21818;51.078;12.108;2023-07-30T10:05:55;1.45;;;0.90;;
35699;SDS011;21818;51.078;12.108;2023-07-30T10:08:27;1.27;;;1.10;;
35699;SDS011;21818;51.078;12.108;2023-07-30T10:10:56;1.10;;;1.00;;
35699;SDS011;21818;51.078;12.108;2023-07-30T10:13:24;1.33;;;0.82;;
35699;SDS011;21818;51.078;12.108;2023-07-30T10:15:50;2.42;;;1.05;;
35699;SDS011;21818;51.078;12.108;2023-07-30T10:18:16;3.15;;;0.90;;
35699;SDS011;21818;51.078;12.108;2023-07-30T10:20:45;1.08;;;0.98;;
35699;SDS011;21818;51.078;12.108;2023-07-30T10:23:19;0.80;;;0.73;;
35699;SDS011;21818;51.078;12.108;2023-07-30T10:25:45;3.53;;;1.10;;
35699;SDS011;21818;51.078;12.108;2023-07-30T10:30:55;1.48;;;0.98;;
35699;SDS011;21818;51.078;12.108;2023-07-30T10:33:22;1.83;;;0.77;;
35699;SDS011;21818;51.078;12.108;2023-07-30T10:35:47;1.52;;;1.00;;
35699;SDS011;21818;51.078;12.108;2023-07-30T10:38:17;2.42;;;1.08;;
35699;SDS011;21818;51.078;12.108;2023-07-30T10:41:18;1.50;;;0.80;;
35699;SDS011;21818;51.078;12.108;2023-07-30T10:43:39;1.90;;;1.05;;
35699;SDS011;21818;51.078;12.108;2023-07-30T10:46:07;3.70;;;1.30;;
35699;SDS011;21818;51.078;12.108;2023-07-30T10:48:35;3.17;;;1.00;;
35699;SDS011;21818;51.078;12.108;2023-07-30T10:51:03;1.40;;;0.80;;
35699;SDS011;21818;51.078;12.108;2023-07-30T10:53:36;3.55;;;0.60;;
35699;SDS011;21818;51.078;12.108;2023-07-30T10:56:02;1.45;;;0.77;;
35699;SDS011;21818;51.078;12.108;2023-07-30T10:58:32;1.65;;;0.90;;
35699;SDS011;21818;51.078;12.108;2023-07-30T11:01:04;1.75;;;0.63;;
35699;SDS011;21818;51.078;12.108;2023-07-30T11:03:30;0.90;;;0.50;;
35699;SDS011;21818;51.078;12.108;2023-07-30T11:06:00;1.20;;;0.75;;
35699;SDS011;21818;51.078;12.108;2023-07-30T11:08:36;1.20;;;0.80;;
35699;SDS011;21818;51.078;12.108;2023-07-30T11:11:03;0.80;;;0.70;;
35699;SDS011;21818;51.078;12.108;2023-07-30T11:13:34;0.90;;;0.65;;
35699;SDS011;21818;51.078;12.108;2023-07-30T11:16:06;1.42;;;0.70;;
35699;SDS011;21818;51.078;12.108;2023-07-30T11:18:33;0.80;;;0.60;;
35699;SDS011;21818;51.078;12.108;2023-07-30T11:21:04;3.67;;;1.05;;
35699;SDS011;21818;51.078;12.108;2023-07-30T11:23:34;0.90;;;0.70;;
35699;SDS011;21818;51.078;12.108;2023-07-30T11:26:01;1.40;;;0.75;;
35699;SDS011;21818;51.078;12.108;2023-07-30T11:28:33;1.50;;;0.70;;
35699;SDS011;21818;51.078;12.108;2023-07-30T11:31:04;0.70;;;0.70;;
35699;SDS011;21818;51.078;12.108;2023-07-30T11:33:31;0.90;;;0.80;;
35699;SDS011;21818;51.078;12.108;2023-07-30T11:35:57;2.80;;;1.02;;
35699;SDS011;21818;51.078;12.108;2023-07-30T11:38:26;1.95;;;0.95;;
35699;SDS011;21818;51.078;12.108;2023-07-30T11:40:52;1.73;;;0.70;;
35699;SDS011;21818;51.078;12.108;2023-07-30T11:43:22;1.90;;;0.75;;
35699;SDS011;21818;51.078;12.108;2023-07-30T11:45:48;1.52;;;0.80;;
35699;SDS011;21818;51.078;12.108;2023-07-30T11:48:14;0.90;;;0.65;;
35699;SDS011;21818;51.078;12.108;2023-07-30T11:50:52;1.35;;;0.70;;
35699;SDS011;21818;51.078;12.108;2023-07-30T11:53:18;1.88;;;0.80;;
35699;SDS011;21818;51.078;12.108;2023-07-30T11:55:44;2.45;;;0.80;;
35699;SDS011;21818;51.078;12.108;2023-07-30T11:58:11;1.33;;;0.57;;
35699;SDS011;21818;51.078;12.108;2023-07-30T12:00:41;0.95;;;0.57;;
35699;SDS011;21818;51.078;12.108;2023-07-30T12:03:11;1.85;;;0.75;;
35699;SDS011;21818;51.078;12.108;2023-07-30T12:05:40;2.70;;;0.77;;
35699;SDS011;21818;51.078;12.108;2023-07-30T12:08:06;1.35;;;0.57;;
35699;SDS011;21818;51.078;12.108;2023-07-30T12:10:47;1.58;;;0.80;;
35699;SDS011;21818;51.078;12.108;2023-07-30T12:13:15;1.05;;;0.60;;
35699;SDS011;21818;51.078;12.108;2023-07-30T12:15:43;0.95;;;0.57;;
35699;SDS011;21818;51.078;12.108;2023-07-30T12:18:09;1.50;;;0.50;;
35699;SDS011;21818;51.078;12.108;2023-07-30T12:20:35;1.10;;;0.70;;
35699;SDS011;21818;51.078;12.108;2023-07-30T12:23:01;1.85;;;0.80;;
35699;SDS011;21818;51.078;12.108;2023-07-30T12:25:28;1.08;;;0.70;;
35699;SDS011;21818;51.078;12.108;2023-07-30T12:27:53;2.13;;;0.50;;
35699;SDS011;21818;51.078;12.108;2023-07-30T12:30:19;1.25;;;0.60;;
35699;SDS011;21818;51.078;12.108;2023-07-30T12:32:45;1.75;;;0.77;;
35699;SDS011;21818;51.078;12.108;2023-07-30T12:35:10;0.95;;;0.80;;
35699;SDS011;21818;51.078;12.108;2023-07-30T12:37:36;0.88;;;0.73;;
35699;SDS011;21818;51.078;12.108;2023-07-30T12:40:02;1.65;;;0.82;;
35699;SDS011;21818;51.078;12.108;2023-07-30T12:42:29;1.15;;;0.70;;
35699;SDS011;21818;51.078;12.108;2023-07-30T12:44:54;0.88;;;0.57;;
35699;SDS011;21818;51.078;12.108;2023-07-30T12:47:20;1.98;;;0.50;;
35699;SDS011;21818;51.078;12.108;2023-07-30T12:49:45;0.73;;;0.57;;
35699;SDS011;21818;51.078;12.108;2023-07-30T12:52:11;2.38;;;0.70;;
35699;SDS011;21818;51.078;12.108;2023-07-30T12:54:37;1.80;;;0.70;;
35699;SDS011;21818;51.078;12.108;2023-07-30T12:57:02;0.93;;;0.80;;
35699;SDS011;21818;51.078;12.108;2023-07-30T12:59:28;0.75;;;0.52;;
35699;SDS011;21818;51.078;12.108;2023-07-30T13:01:53;2.03;;;0.77;;
35699;SDS011;21818;51.078;12.108;2023-07-30T13:04:20;1.27;;;0.60;;
35699;SDS011;21818;51.078;12.108;2023-07-30T13:06:46;1.20;;;0.65;;
35699;SDS011;21818;51.078;12.108;2023-07-30T13:09:12;1.50;;;0.73;;
35699;SDS011;21818;51.078;12.108;2023-07-30T13:11:37;1.25;;;0.60;;
35699;SDS011;21818;51.078;12.108;2023-07-30T13:14:03;1.85;;;0.60;;
35699;SDS011;21818;51.078;12.108;2023-07-30T13:16:28;2.88;;;0.70;;
35699;SDS011;21818;51.078;12.108;2023-07-30T13:18:56;1.52;;;0.60;;
35699;SDS011;21818;51.078;12.108;2023-07-30T13:21:22;2.97;;;1.40;;
35699;SDS011;21818;51.078;12.108;2023-07-30T13:23:48;2.00;;;0.60;;
35699;SDS011;21818;51.078;12.108;2023-07-30T13:26:13;2.17;;;0.80;;
35699;SDS011;21818;51.078;12.108;2023-07-30T13:28:39;1.80;;;0.70;;
35699;SDS011;21818;51.078;12.108;2023-07-30T13:31:04;2.90;;;0.70;;
35699;SDS011;21818;51.078;12.108;2023-07-30T13:33:30;1.77;;;0.70;;
35699;SDS011;21818;51.078;12.108;2023-07-30T13:35:56;2.03;;;0.70;;
35699;SDS011;21818;51.078;12.108;2023-07-30T13:38:21;3.42;;;0.80;;
35699;SDS011;21818;51.078;12.108;2023-07-30T13:40:47;0.82;;;0.60;;
35699;SDS011;21818;51.078;12.108;2023-07-30T13:43:13;3.60;;;0.88;;
35699;SDS011;21818;51.078;12.108;2023-07-30T13:45:38;1.88;;;0.90;;
35699;SDS011;21818;51.078;12.108;2023-07-30T13:48:04;2.97;;;1.02;;
35699;SDS011;21818;51.078;12.108;2023-07-30T13:50:29;2.13;;;0.80;;
35699;SDS011;21818;51.078;12.108;2023-07-30T13:52:55;1.40;;;0.75;;
35699;SDS011;21818;51.078;12.108;2023-07-30T13:55:21;1.52;;;0.80;;
35699;SDS011;21818;51.078;12.108;2023-07-30T13:57:46;3.15;;;1.00;;
35699;SDS011;21818;51.078;12.108;2023-07-30T14:00:12;1.95;;;1.10;;
35699;SDS011;21818;51.078;12.108;2023-07-30T14:02:38;1.00;;;0.80;;
35699;SDS011;21818;51.078;12.108;2023-07-30T14:05:03;2.67;;;0.93;;
35699;SDS011;21818;51.078;12.108;2023-07-30T14:07:29;1.63;;;0.60;;
35699;SDS011;21818;51.078;12.108;2023-07-30T14:09:55;0.98;;;0.70;;
35699;SDS011;21818;51.078;12.108;2023-07-30T14:12:20;1.88;;;0.82;;
35699;SDS011;21818;51.078;12.108;2023-07-30T14:14:46;3.13;;;1.08;;
35699;SDS011;21818;51.078;12.108;2023-07-30T14:17:12;1.83;;;0.80;;
35699;SDS011;21818;51.078;12.108;2023-07-30T14:19:37;5.18;;;1.63;;
35699;SDS011;21818;51.078;12.108;2023-07-30T14:22:03;1.42;;;0.75;;
35699;SDS011;21818;51.078;12.108;2023-07-30T14:24:30;0.85;;;0.77;;
35699;SDS011;21818;51.078;12.108;2023-07-30T14:26:55;2.63;;;0.80;;
35699;SDS011;21818;51.078;12.108;2023-07-30T14:29:21;1.90;;;0.90;;
35699;SDS011;21818;51.078;12.108;2023-07-30T14:31:46;1.05;;;0.63;;
35699;SDS011;21818;51.078;12.108;2023-07-30T14:34:12;1.50;;;1.00;;
35699;SDS011;21818;51.078;12.108;2023-07-30T14:36:38;2.17;;;1.10;;